This is the latest recevied weather packets stored in our database for station/object SP2JGY-2. If no packets are shown the sender has not sent any weather packets the latest 10 day(s).
| Time | Temp. | Humidity | Pressure | Rain* | Wind** | Luminosity | Snow |
|---|---|---|---|---|---|---|---|
| 1777262907 | 2.22° C | 72% | 1023 hPa | - | - | - | - |
| 1777262006 | 1.67° C | 72% | 1023 hPa | - | - | - | - |
| 1777261106 | 1.67° C | 72% | 1023 hPa | - | - | - | - |
| 1777260206 | 1.67° C | 71% | 1022.9 hPa | - | - | - | - |
| 1777259306 | 1.67° C | 70% | 1022.7 hPa | - | - | - | - |
| 1777257506 | 1.67° C | 69% | 1022.9 hPa | - | - | - | - |
| 1777256606 | 1.67° C | 68% | 1022.8 hPa | - | - | - | - |
| 1777232301 | 4.44° C | 48% | 1023.8 hPa | - | - | - | - |
| 1777230501 | 5° C | 44% | 1023.6 hPa | - | - | - | - |
| 1777229601 | 5.56° C | 43% | 1023.6 hPa | - | - | - | - |
| 1777225100 | 7.78° C | 30% | 1023.2 hPa | - | - | - | - |
| 1777224200 | 7.78° C | 28% | 1023.2 hPa | - | - | - | - |
| 1777219699 | 19.44° C | 11% | 1023.1 hPa | - | - | - | - |
| 1777218799 | 19.44° C | 11% | 1023.2 hPa | - | - | - | - |
| 1777217898 | 20.56° C | 11% | 1023.1 hPa | - | - | - | - |
| 1777216998 | 19.44° C | 11% | 1023 hPa | - | - | - | - |
| 1777216098 | 21.11° C | 8% | 1023 hPa | - | - | - | - |
| 1777210698 | 10.56° C | 28% | 1022.8 hPa | - | - | - | - |
| 1777208896 | 10° C | 31% | 1022.7 hPa | - | - | - | - |
| 1777207996 | 9.44° C | 35% | 1022.6 hPa | - | - | - | - |
| 1777203498 | 8.33° C | 34% | 1022.3 hPa | - | - | - | - |
| 1777202596 | 8.89° C | 37% | 1022.2 hPa | - | - | - | - |
| 1777199894 | 7.78° C | 40% | 1021.9 hPa | - | - | - | - |
| 1777198994 | 8.33° C | 37% | 1021.7 hPa | - | - | - | - |
| 1777198094 | 7.78° C | 39% | 1021.5 hPa | - | - | - | - |
* Rain since midnight (hover to see other rain measurements)
** Current wind speed in m/s (hover to see current wind gust speed)